sensor_id;sensor_type;location;lat;lon;timestamp;temperature;humidity
7822;DHT22;3956;50.558;9.678;2023-04-03T00:00:34;3.80;9.10
7822;DHT22;3956;50.558;9.678;2023-04-03T00:03:03;3.90;8.40
7822;DHT22;3956;50.558;9.678;2023-04-03T00:05:31;3.80;8.90
7822;DHT22;3956;50.558;9.678;2023-04-03T00:07:59;3.70;7.50
7822;DHT22;3956;50.558;9.678;2023-04-03T00:10:30;3.80;5.30
7822;DHT22;3956;50.558;9.678;2023-04-03T00:12:58;3.80;10.10
7822;DHT22;3956;50.558;9.678;2023-04-03T00:15:26;3.80;6.40
7822;DHT22;3956;50.558;9.678;2023-04-03T00:17:55;3.80;7.90
7822;DHT22;3956;50.558;9.678;2023-04-03T00:20:23;3.70;5.40
7822;DHT22;3956;50.558;9.678;2023-04-03T00:22:53;3.80;4.20
7822;DHT22;3956;50.558;9.678;2023-04-03T00:25:21;3.70;4.30
7822;DHT22;3956;50.558;9.678;2023-04-03T00:27:51;3.70;3.20
7822;DHT22;3956;50.558;9.678;2023-04-03T00:30:20;3.60;5.00
7822;DHT22;3956;50.558;9.678;2023-04-03T00:32:50;3.60;4.10
7822;DHT22;3956;50.558;9.678;2023-04-03T00:35:19;3.50;7.10
7822;DHT22;3956;50.558;9.678;2023-04-03T00:37:50;3.50;7.90
7822;DHT22;3956;50.558;9.678;2023-04-03T00:40:19;3.40;7.20
7822;DHT22;3956;50.558;9.678;2023-04-03T00:42:50;3.30;7.20
7822;DHT22;3956;50.558;9.678;2023-04-03T00:45:29;3.30;7.50
7822;DHT22;3956;50.558;9.678;2023-04-03T00:47:58;3.20;8.00
7822;DHT22;3956;50.558;9.678;2023-04-03T00:50:28;3.10;9.20
7822;DHT22;3956;50.558;9.678;2023-04-03T00:52:57;2.90;7.40
7822;DHT22;3956;50.558;9.678;2023-04-03T00:55:27;2.90;9.10
7822;DHT22;3956;50.558;9.678;2023-04-03T00:57:56;2.90;10.60
7822;DHT22;3956;50.558;9.678;2023-04-03T01:00:26;2.80;10.70
7822;DHT22;3956;50.558;9.678;2023-04-03T01:02:55;2.80;12.80
7822;DHT22;3956;50.558;9.678;2023-04-03T01:05:23;2.60;11.80
7822;DHT22;3956;50.558;9.678;2023-04-03T01:07:52;2.70;14.30
7822;DHT22;3956;50.558;9.678;2023-04-03T01:10:21;2.60;14.60
7822;DHT22;3956;50.558;9.678;2023-04-03T01:12:50;2.40;16.40
7822;DHT22;3956;50.558;9.678;2023-04-03T01:15:20;2.50;17.30
7822;DHT22;3956;50.558;9.678;2023-04-03T01:17:52;2.30;17.30
7822;DHT22;3956;50.558;9.678;2023-04-03T01:20:44;2.30;17.70
7822;DHT22;3956;50.558;9.678;2023-04-03T01:23:27;2.20;16.00
7822;DHT22;3956;50.558;9.678;2023-04-03T01:25:57;2.20;17.00
7822;DHT22;3956;50.558;9.678;2023-04-03T01:28:28;2.20;15.80
7822;DHT22;3956;50.558;9.678;2023-04-03T01:31:00;2.10;17.00
7822;DHT22;3956;50.558;9.678;2023-04-03T01:33:32;2.10;17.70
7822;DHT22;3956;50.558;9.678;2023-04-03T01:36:01;2.00;21.40
7822;DHT22;3956;50.558;9.678;2023-04-03T01:38:29;2.00;21.80
7822;DHT22;3956;50.558;9.678;2023-04-03T01:40:57;2.10;22.60
7822;DHT22;3956;50.558;9.678;2023-04-03T01:43:25;2.00;23.70
7822;DHT22;3956;50.558;9.678;2023-04-03T01:45:54;1.90;23.50
7822;DHT22;3956;50.558;9.678;2023-04-03T01:48:22;1.90;23.50
7822;DHT22;3956;50.558;9.678;2023-04-03T01:50:52;1.80;26.70
7822;DHT22;3956;50.558;9.678;2023-04-03T01:53:20;1.80;25.10
7822;DHT22;3956;50.558;9.678;2023-04-03T01:55:49;1.70;25.50
7822;DHT22;3956;50.558;9.678;2023-04-03T01:58:17;1.70;28.10
7822;DHT22;3956;50.558;9.678;2023-04-03T02:00:45;1.70;29.40
7822;DHT22;3956;50.558;9.678;2023-04-03T02:03:14;1.60;38.80
7822;DHT22;3956;50.558;9.678;2023-04-03T02:05:42;1.60;39.00
7822;DHT22;3956;50.558;9.678;2023-04-03T02:08:12;1.50;40.80
7822;DHT22;3956;50.558;9.678;2023-04-03T02:10:41;1.50;46.60
7822;DHT22;3956;50.558;9.678;2023-04-03T02:13:09;1.40;50.20
7822;DHT22;3956;50.558;9.678;2023-04-03T02:15:38;1.30;47.50
7822;DHT22;3956;50.558;9.678;2023-04-03T02:18:07;1.30;49.90
7822;DHT22;3956;50.558;9.678;2023-04-03T02:20:35;1.20;52.30
7822;DHT22;3956;50.558;9.678;2023-04-03T02:23:04;1.20;54.20
7822;DHT22;3956;50.558;9.678;2023-04-03T02:25:34;1.10;60.70
7822;DHT22;3956;50.558;9.678;2023-04-03T02:28:05;1.20;58.40
7822;DHT22;3956;50.558;9.678;2023-04-03T02:30:33;1.10;59.80
7822;DHT22;3956;50.558;9.678;2023-04-03T02:33:02;1.10;58.00
7822;DHT22;3956;50.558;9.678;2023-04-03T02:35:30;1.00;58.80
7822;DHT22;3956;50.558;9.678;2023-04-03T02:38:07;0.90;61.40
7822;DHT22;3956;50.558;9.678;2023-04-03T02:40:37;0.90;65.50
7822;DHT22;3956;50.558;9.678;2023-04-03T02:43:05;0.90;61.30
7822;DHT22;3956;50.558;9.678;2023-04-03T02:45:34;0.90;63.70
7822;DHT22;3956;50.558;9.678;2023-04-03T02:48:02;1.00;63.40
7822;DHT22;3956;50.558;9.678;2023-04-03T02:50:31;0.90;58.60
7822;DHT22;3956;50.558;9.678;2023-04-03T02:52:59;0.80;60.10
7822;DHT22;3956;50.558;9.678;2023-04-03T02:55:27;0.90;59.90
7822;DHT22;3956;50.558;9.678;2023-04-03T02:57:59;0.90;62.20
7822;DHT22;3956;50.558;9.678;2023-04-03T03:00:28;0.80;64.90
7822;DHT22;3956;50.558;9.678;2023-04-03T03:03:00;0.80;69.20
7822;DHT22;3956;50.558;9.678;2023-04-03T03:05:30;0.80;68.20
7822;DHT22;3956;50.558;9.678;2023-04-03T03:07:59;0.80;69.30
7822;DHT22;3956;50.558;9.678;2023-04-03T03:10:28;0.70;72.70
7822;DHT22;3956;50.558;9.678;2023-04-03T03:12:56;0.70;73.50
7822;DHT22;3956;50.558;9.678;2023-04-03T03:15:26;0.70;74.60
7822;DHT22;3956;50.558;9.678;2023-04-03T03:17:54;0.60;75.20
7822;DHT22;3956;50.558;9.678;2023-04-03T03:20:22;0.60;77.30
7822;DHT22;3956;50.558;9.678;2023-04-03T03:22:50;0.60;77.50
7822;DHT22;3956;50.558;9.678;2023-04-03T03:25:19;0.60;86.40
7822;DHT22;3956;50.558;9.678;2023-04-03T03:27:47;0.60;87.50
7822;DHT22;3956;50.558;9.678;2023-04-03T03:30:15;0.50;88.00
7822;DHT22;3956;50.558;9.678;2023-04-03T03:32:45;0.50;91.40
7822;DHT22;3956;50.558;9.678;2023-04-03T03:35:13;0.50;91.90
7822;DHT22;3956;50.558;9.678;2023-04-03T03:37:41;0.40;92.00
7822;DHT22;3956;50.558;9.678;2023-04-03T03:40:10;0.40;92.60
7822;DHT22;3956;50.558;9.678;2023-04-03T03:42:40;0.30;94.70
7822;DHT22;3956;50.558;9.678;2023-04-03T03:45:09;0.30;95.60
7822;DHT22;3956;50.558;9.678;2023-04-03T03:47:40;0.30;98.40
7822;DHT22;3956;50.558;9.678;2023-04-03T03:50:16;0.30;99.90
7822;DHT22;3956;50.558;9.678;2023-04-03T03:52:46;0.30;99.20
7822;DHT22;3956;50.558;9.678;2023-04-03T03:55:15;0.30;99.50
7822;DHT22;3956;50.558;9.678;2023-04-03T03:57:44;0.30;96.10
7822;DHT22;3956;50.558;9.678;2023-04-03T04:00:13;0.30;99.50
7822;DHT22;3956;50.558;9.678;2023-04-03T04:02:41;0.30;98.60
7822;DHT22;3956;50.558;9.678;2023-04-03T04:05:11;0.20;99.90
7822;DHT22;3956;50.558;9.678;2023-04-03T04:07:40;0.30;99.90
7822;DHT22;3956;50.558;9.678;2023-04-03T04:10:08;0.20;99.90
7822;DHT22;3956;50.558;9.678;2023-04-03T04:12:37;0.30;99.90
7822;DHT22;3956;50.558;9.678;2023-04-03T04:15:06;0.20;99.90
7822;DHT22;3956;50.558;9.678;2023-04-03T04:17:35;0.20;99.90
7822;DHT22;3956;50.558;9.678;2023-04-03T04:20:04;0.20;99.90
7822;DHT22;3956;50.558;9.678;2023-04-03T04:22:34;0.20;99.90
7822;DHT22;3956;50.558;9.678;2023-04-03T04:25:03;0.30;99.60
7822;DHT22;3956;50.558;9.678;2023-04-03T04:27:31;0.30;97.10
7822;DHT22;3956;50.558;9.678;2023-04-03T04:29:59;0.30;98.30
7822;DHT22;3956;50.558;9.678;2023-04-03T04:32:27;0.30;99.90
7822;DHT22;3956;50.558;9.678;2023-04-03T04:35:00;0.30;99.90
7822;DHT22;3956;50.558;9.678;2023-04-03T04:37:58;0.30;99.90
7822;DHT22;3956;50.558;9.678;2023-04-03T04:41:25;0.30;98.20
7822;DHT22;3956;50.558;9.678;2023-04-03T04:43:54;0.30;95.80
7822;DHT22;3956;50.558;9.678;2023-04-03T04:46:22;0.40;95.70
7822;DHT22;3956;50.558;9.678;2023-04-03T04:48:50;0.40;93.90
7822;DHT22;3956;50.558;9.678;2023-04-03T04:51:19;0.40;93.60
7822;DHT22;3956;50.558;9.678;2023-04-03T04:53:50;0.50;92.10
7822;DHT22;3956;50.558;9.678;2023-04-03T04:56:22;0.40;90.90
7822;DHT22;3956;50.558;9.678;2023-04-03T04:58:51;0.40;90.80
7822;DHT22;3956;50.558;9.678;2023-04-03T05:01:19;0.50;92.90
7822;DHT22;3956;50.558;9.678;2023-04-03T05:03:48;0.60;90.00
7822;DHT22;3956;50.558;9.678;2023-04-03T05:06:16;0.50;91.40
7822;DHT22;3956;50.558;9.678;2023-04-03T05:08:44;0.50;84.40
7822;DHT22;3956;50.558;9.678;2023-04-03T05:11:14;0.50;82.30
7822;DHT22;3956;50.558;9.678;2023-04-03T05:13:45;0.50;83.70
7822;DHT22;3956;50.558;9.678;2023-04-03T05:16:14;0.50;81.10
7822;DHT22;3956;50.558;9.678;2023-04-03T05:19:05;0.60;72.30
7822;DHT22;3956;50.558;9.678;2023-04-03T05:22:24;0.70;65.60
7822;DHT22;3956;50.558;9.678;2023-04-03T05:24:52;0.80;56.90
7822;DHT22;3956;50.558;9.678;2023-04-03T05:27:23;0.70;58.00
7822;DHT22;3956;50.558;9.678;2023-04-03T05:29:55;0.80;83.60
7822;DHT22;3956;50.558;9.678;2023-04-03T05:32:32;0.70;59.60
7822;DHT22;3956;50.558;9.678;2023-04-03T05:35:16;0.70;54.70
7822;DHT22;3956;50.558;9.678;2023-04-03T05:38:06;0.80;40.80
7822;DHT22;3956;50.558;9.678;2023-04-03T05:40:35;0.60;36.10
7822;DHT22;3956;50.558;9.678;2023-04-03T05:43:04;0.70;30.60
7822;DHT22;3956;50.558;9.678;2023-04-03T05:45:38;0.60;34.30
7822;DHT22;3956;50.558;9.678;2023-04-03T05:48:16;0.60;36.40
7822;DHT22;3956;50.558;9.678;2023-04-03T05:50:44;0.60;35.00
7822;DHT22;3956;50.558;9.678;2023-04-03T05:53:15;0.50;29.40
7822;DHT22;3956;50.558;9.678;2023-04-03T05:55:45;0.60;32.50
7822;DHT22;3956;50.558;9.678;2023-04-03T05:58:20;0.60;25.10
7822;DHT22;3956;50.558;9.678;2023-04-03T06:01:05;0.60;24.00
7822;DHT22;3956;50.558;9.678;2023-04-03T06:03:42;0.50;26.10
7822;DHT22;3956;50.558;9.678;2023-04-03T06:06:14;0.60;26.40
7822;DHT22;3956;50.558;9.678;2023-04-03T06:08:47;0.50;24.70
7822;DHT22;3956;50.558;9.678;2023-04-03T06:11:17;0.60;23.30
7822;DHT22;3956;50.558;9.678;2023-04-03T06:13:48;0.70;19.20
7822;DHT22;3956;50.558;9.678;2023-04-03T06:16:19;0.80;20.70
7822;DHT22;3956;50.558;9.678;2023-04-03T06:18:48;0.90;15.30
7822;DHT22;3956;50.558;9.678;2023-04-03T06:21:25;0.90;13.60
7822;DHT22;3956;50.558;9.678;2023-04-03T06:24:05;0.70;16.20
7822;DHT22;3956;50.558;9.678;2023-04-03T06:26:46;0.60;16.50
7822;DHT22;3956;50.558;9.678;2023-04-03T06:29:17;0.60;18.50
7822;DHT22;3956;50.558;9.678;2023-04-03T06:31:47;0.70;28.90
7822;DHT22;3956;50.558;9.678;2023-04-03T06:34:38;0.70;18.90
7822;DHT22;3956;50.558;9.678;2023-04-03T06:37:15;1.10;19.00
7822;DHT22;3956;50.558;9.678;2023-04-03T06:39:51;1.20;16.00
7822;DHT22;3956;50.558;9.678;2023-04-03T06:42:19;1.30;17.20
7822;DHT22;3956;50.558;9.678;2023-04-03T06:44:51;1.00;14.30
7822;DHT22;3956;50.558;9.678;2023-04-03T06:47:23;1.30;11.90
7822;DHT22;3956;50.558;9.678;2023-04-03T06:50:00;1.40;8.70
7822;DHT22;3956;50.558;9.678;2023-04-03T06:52:28;1.30;9.80
7822;DHT22;3956;50.558;9.678;2023-04-03T06:55:12;1.20;17.30
7822;DHT22;3956;50.558;9.678;2023-04-03T06:57:51;1.30;15.60
7822;DHT22;3956;50.558;9.678;2023-04-03T07:00:27;1.30;33.20
7822;DHT22;3956;50.558;9.678;2023-04-03T07:02:57;1.40;16.40
7822;DHT22;3956;50.558;9.678;2023-04-03T07:07:52;1.40;10.60
7822;DHT22;3956;50.558;9.678;2023-04-03T07:10:25;1.60;14.20
7822;DHT22;3956;50.558;9.678;2023-04-03T07:12:57;2.00;7.30
7822;DHT22;3956;50.558;9.678;2023-04-03T07:15:28;2.10;2.50
7822;DHT22;3956;50.558;9.678;2023-04-03T07:18:03;2.20;4.80
7822;DHT22;3956;50.558;9.678;2023-04-03T07:20:40;2.30;1.00
7822;DHT22;3956;50.558;9.678;2023-04-03T07:23:28;2.00;2.50
7822;DHT22;3956;50.558;9.678;2023-04-03T07:26:07;1.80;1.30
7822;DHT22;3956;50.558;9.678;2023-04-03T07:29:06;2.00;3.50
7822;DHT22;3956;50.558;9.678;2023-04-03T07:31:40;2.00;3.60
7822;DHT22;3956;50.558;9.678;2023-04-03T07:34:17;1.80;5.20
7822;DHT22;3956;50.558;9.678;2023-04-03T07:37:00;1.90;7.60
7822;DHT22;3956;50.558;9.678;2023-04-03T07:39:44;1.50;1.00
7822;DHT22;3956;50.558;9.678;2023-04-03T07:42:15;2.00;8.70
7822;DHT22;3956;50.558;9.678;2023-04-03T07:44:52;2.10;10.60
7822;DHT22;3956;50.558;9.678;2023-04-03T07:47:57;2.40;12.30
7822;DHT22;3956;50.558;9.678;2023-04-03T07:50:43;2.20;12.90
7822;DHT22;3956;50.558;9.678;2023-04-03T07:53:31;2.10;15.20
7822;DHT22;3956;50.558;9.678;2023-04-03T07:56:31;2.30;11.30
7822;DHT22;3956;50.558;9.678;2023-04-03T07:59:00;2.60;6.10
7822;DHT22;3956;50.558;9.678;2023-04-03T08:01:35;2.10;8.90
7822;DHT22;3956;50.558;9.678;2023-04-03T08:04:09;2.90;4.50
7822;DHT22;3956;50.558;9.678;2023-04-03T08:06:37;4.40;1.00
7822;DHT22;3956;50.558;9.678;2023-04-03T08:09:12;3.80;1.00
7822;DHT22;3956;50.558;9.678;2023-04-03T08:11:43;3.20;1.00
7822;DHT22;3956;50.558;9.678;2023-04-03T08:14:20;2.80;1.00
7822;DHT22;3956;50.558;9.678;2023-04-03T08:16:53;2.30;1.00
7822;DHT22;3956;50.558;9.678;2023-04-03T08:19:59;3.10;1.00
7822;DHT22;3956;50.558;9.678;2023-04-03T08:22:32;6.70;1.00
7822;DHT22;3956;50.558;9.678;2023-04-03T08:25:02;3.90;1.00
7822;DHT22;3956;50.558;9.678;2023-04-03T08:27:36;3.00;1.00
7822;DHT22;3956;50.558;9.678;2023-04-03T08:30:08;2.70;1.00
7822;DHT22;3956;50.558;9.678;2023-04-03T08:32:39;2.60;1.00
7822;DHT22;3956;50.558;9.678;2023-04-03T08:35:12;3.50;1.00
7822;DHT22;3956;50.558;9.678;2023-04-03T08:37:41;3.10;1.00
7822;DHT22;3956;50.558;9.678;2023-04-03T08:40:15;5.00;1.00
7822;DHT22;3956;50.558;9.678;2023-04-03T08:42:57;4.80;1.00
7822;DHT22;3956;50.558;9.678;2023-04-03T08:45:50;7.70;1.00
7822;DHT22;3956;50.558;9.678;2023-04-03T08:48:52;4.80;1.00
7822;DHT22;3956;50.558;9.678;2023-04-03T08:51:26;4.60;1.00
7822;DHT22;3956;50.558;9.678;2023-04-03T08:54:29;6.00;1.00
7822;DHT22;3956;50.558;9.678;2023-04-03T08:57:16;6.00;1.00
7822;DHT22;3956;50.558;9.678;2023-04-03T08:59:52;5.40;1.00
7822;DHT22;3956;50.558;9.678;2023-04-03T09:02:28;5.80;1.00
7822;DHT22;3956;50.558;9.678;2023-04-03T09:05:01;9.50;1.00
7822;DHT22;3956;50.558;9.678;2023-04-03T09:07:42;6.40;1.00
7822;DHT22;3956;50.558;9.678;2023-04-03T09:10:18;4.10;1.00
7822;DHT22;3956;50.558;9.678;2023-04-03T09:13:01;4.00;1.00
7822;DHT22;3956;50.558;9.678;2023-04-03T09:15:38;3.80;1.00
7822;DHT22;3956;50.558;9.678;2023-04-03T09:18:15;4.00;1.00
7822;DHT22;3956;50.558;9.678;2023-04-03T09:21:05;3.20;1.00
7822;DHT22;3956;50.558;9.678;2023-04-03T09:23:44;3.50;1.00
7822;DHT22;3956;50.558;9.678;2023-04-03T09:26:16;3.50;1.00
7822;DHT22;3956;50.558;9.678;2023-04-03T09:28:47;4.10;1.00
7822;DHT22;3956;50.558;9.678;2023-04-03T09:31:21;4.10;1.00
7822;DHT22;3956;50.558;9.678;2023-04-03T09:34:02;3.90;1.00
7822;DHT22;3956;50.558;9.678;2023-04-03T09:36:42;3.90;1.00
7822;DHT22;3956;50.558;9.678;2023-04-03T09:39:23;4.30;1.00
7822;DHT22;3956;50.558;9.678;2023-04-03T09:41:59;4.10;1.00
7822;DHT22;3956;50.558;9.678;2023-04-03T09:44:32;4.10;1.00
7822;DHT22;3956;50.558;9.678;2023-04-03T09:47:19;4.40;1.00
7822;DHT22;3956;50.558;9.678;2023-04-03T09:50:20;4.80;1.00
7822;DHT22;3956;50.558;9.678;2023-04-03T09:52:53;4.70;1.00
7822;DHT22;3956;50.558;9.678;2023-04-03T09:55:28;4.80;1.00
7822;DHT22;3956;50.558;9.678;2023-04-03T09:57:58;3.80;1.00
7822;DHT22;3956;50.558;9.678;2023-04-03T10:00:33;4.30;1.00
7822;DHT22;3956;50.558;9.678;2023-04-03T10:03:24;4.10;1.00
7822;DHT22;3956;50.558;9.678;2023-04-03T10:05:54;4.50;1.00
7822;DHT22;3956;50.558;9.678;2023-04-03T10:08:34;5.00;1.00
7822;DHT22;3956;50.558;9.678;2023-04-03T10:11:13;4.80;1.00
7822;DHT22;3956;50.558;9.678;2023-04-03T10:13:54;4.60;1.00
7822;DHT22;3956;50.558;9.678;2023-04-03T10:16:29;5.00;1.00
7822;DHT22;3956;50.558;9.678;2023-04-03T10:19:37;5.00;1.00
7822;DHT22;3956;50.558;9.678;2023-04-03T10:22:18;5.20;1.00
7822;DHT22;3956;50.558;9.678;2023-04-03T10:24:57;4.90;1.00
7822;DHT22;3956;50.558;9.678;2023-04-03T10:27:53;4.70;1.00
7822;DHT22;3956;50.558;9.678;2023-04-03T10:30:41;4.50;1.00
7822;DHT22;3956;50.558;9.678;2023-04-03T10:33:34;5.20;1.00
7822;DHT22;3956;50.558;9.678;2023-04-03T10:36:14;4.80;1.00
7822;DHT22;3956;50.558;9.678;2023-04-03T10:38:51;4.50;1.00
7822;DHT22;3956;50.558;9.678;2023-04-03T10:41:27;4.00;1.00
7822;DHT22;3956;50.558;9.678;2023-04-03T10:44:36;5.00;1.00
7822;DHT22;3956;50.558;9.678;2023-04-03T10:47:43;5.40;1.00
7822;DHT22;3956;50.558;9.678;2023-04-03T10:50:30;5.30;1.00
7822;DHT22;3956;50.558;9.678;2023-04-03T10:53:06;4.90;1.00
7822;DHT22;3956;50.558;9.678;2023-04-03T10:55:43;4.50;1.00
7822;DHT22;3956;50.558;9.678;2023-04-03T10:58:30;4.40;1.00
7822;DHT22;3956;50.558;9.678;2023-04-03T11:04:40;4.20;1.00
7822;DHT22;3956;50.558;9.678;2023-04-03T11:07:22;5.00;1.00
7822;DHT22;3956;50.558;9.678;2023-04-03T11:10:39;5.00;1.00
7822;DHT22;3956;50.558;9.678;2023-04-03T11:13:17;5.50;1.00
7822;DHT22;3956;50.558;9.678;2023-04-03T11:15:46;4.80;1.00
7822;DHT22;3956;50.558;9.678;2023-04-03T11:18:20;4.50;1.00
7822;DHT22;3956;50.558;9.678;2023-04-03T11:21:01;5.10;1.00
7822;DHT22;3956;50.558;9.678;2023-04-03T11:23:34;4.60;1.00
7822;DHT22;3956;50.558;9.678;2023-04-03T11:26:17;5.50;1.00
7822;DHT22;3956;50.558;9.678;2023-04-03T11:28:47;5.50;1.00
7822;DHT22;3956;50.558;9.678;2023-04-03T11:31:45;5.40;1.00
7822;DHT22;3956;50.558;9.678;2023-04-03T11:34:41;4.90;1.00
7822;DHT22;3956;50.558;9.678;2023-04-03T11:41:07;6.10;1.00
7822;DHT22;3956;50.558;9.678;2023-04-03T11:43:41;5.30;1.00
7822;DHT22;3956;50.558;9.678;2023-04-03T11:46:11;6.00;1.00
7822;DHT22;3956;50.558;9.678;2023-04-03T11:48:48;6.40;1.00
7822;DHT22;3956;50.558;9.678;2023-04-03T11:51:39;6.40;1.00
7822;DHT22;3956;50.558;9.678;2023-04-03T11:54:46;6.20;1.00
7822;DHT22;3956;50.558;9.678;2023-04-03T11:57:49;5.70;1.00
7822;DHT22;3956;50.558;9.678;2023-04-03T12:00:54;5.00;1.00
7822;DHT22;3956;50.558;9.678;2023-04-03T12:04:03;6.40;1.00
7822;DHT22;3956;50.558;9.678;2023-04-03T12:17:11;5.90;1.00
7822;DHT22;3956;50.558;9.678;2023-04-03T12:19:49;5.30;1.00
7822;DHT22;3956;50.558;9.678;2023-04-03T12:25:48;5.40;1.00
7822;DHT22;3956;50.558;9.678;2023-04-03T12:28:20;5.10;1.00
7822;DHT22;3956;50.558;9.678;2023-04-03T12:34:53;5.70;1.00
7822;DHT22;3956;50.558;9.678;2023-04-03T12:38:07;6.20;1.00
7822;DHT22;3956;50.558;9.678;2023-04-03T12:41:00;5.90;1.00
7822;DHT22;3956;50.558;9.678;2023-04-03T12:47:02;6.20;1.00
7822;DHT22;3956;50.558;9.678;2023-04-03T12:49:45;6.50;1.00
7822;DHT22;3956;50.558;9.678;2023-04-03T12:52:30;6.30;1.00
7822;DHT22;3956;50.558;9.678;2023-04-03T12:55:12;5.60;1.00
7822;DHT22;3956;50.558;9.678;2023-04-03T12:58:27;6.50;1.00
7822;DHT22;3956;50.558;9.678;2023-04-03T13:01:20;6.20;1.00
7822;DHT22;3956;50.558;9.678;2023-04-03T13:04:14;6.90;1.00
7822;DHT22;3956;50.558;9.678;2023-04-03T13:11:17;6.10;1.00
7822;DHT22;3956;50.558;9.678;2023-04-03T13:14:34;5.50;1.00
7822;DHT22;3956;50.558;9.678;2023-04-03T13:17:38;6.70;1.00
7822;DHT22;3956;50.558;9.678;2023-04-03T13:20:30;6.50;1.00
7822;DHT22;3956;50.558;9.678;2023-04-03T13:23:13;6.40;1.00
7822;DHT22;3956;50.558;9.678;2023-04-03T13:27:02;6.70;1.00
7822;DHT22;3956;50.558;9.678;2023-04-03T13:33:33;6.70;1.00
7822;DHT22;3956;50.558;9.678;2023-04-03T13:36:07;6.30;1.00
7822;DHT22;3956;50.558;9.678;2023-04-03T13:38:41;5.60;1.00
7822;DHT22;3956;50.558;9.678;2023-04-03T13:41:30;6.40;1.00
7822;DHT22;3956;50.558;9.678;2023-04-03T13:51:00;6.60;1.00
7822;DHT22;3956;50.558;9.678;2023-04-03T13:53:33;7.00;1.00
7822;DHT22;3956;50.558;9.678;2023-04-03T13:56:15;6.70;1.00
7822;DHT22;3956;50.558;9.678;2023-04-03T13:59:02;6.10;1.00
7822;DHT22;3956;50.558;9.678;2023-04-03T14:01:44;6.40;1.00
7822;DHT22;3956;50.558;9.678;2023-04-03T14:04:22;5.70;1.00
7822;DHT22;3956;50.558;9.678;2023-04-03T14:10:03;6.00;1.00
7822;DHT22;3956;50.558;9.678;2023-04-03T14:12:35;5.90;1.00
7822;DHT22;3956;50.558;9.678;2023-04-03T14:15:26;6.50;1.00
7822;DHT22;3956;50.558;9.678;2023-04-03T14:17:55;7.00;1.00
7822;DHT22;3956;50.558;9.678;2023-04-03T14:20:27;7.40;1.00
7822;DHT22;3956;50.558;9.678;2023-04-03T14:23:02;5.80;1.00
7822;DHT22;3956;50.558;9.678;2023-04-03T14:25:35;6.50;1.00
7822;DHT22;3956;50.558;9.678;2023-04-03T14:28:27;6.70;1.00
7822;DHT22;3956;50.558;9.678;2023-04-03T14:31:03;6.20;1.00
7822;DHT22;3956;50.558;9.678;2023-04-03T14:33:33;6.20;1.00
7822;DHT22;3956;50.558;9.678;2023-04-03T14:36:16;6.20;1.00
7822;DHT22;3956;50.558;9.678;2023-04-03T14:38:51;6.50;1.00
7822;DHT22;3956;50.558;9.678;2023-04-03T14:41:26;6.60;1.00
7822;DHT22;3956;50.558;9.678;2023-04-03T14:44:06;6.90;1.00
7822;DHT22;3956;50.558;9.678;2023-04-03T14:46:57;6.20;1.00
7822;DHT22;3956;50.558;9.678;2023-04-03T14:49:34;6.60;1.00
7822;DHT22;3956;50.558;9.678;2023-04-03T14:56:01;6.80;1.00
7822;DHT22;3956;50.558;9.678;2023-04-03T14:58:33;6.60;1.00
7822;DHT22;3956;50.558;9.678;2023-04-03T15:01:10;6.30;1.00
7822;DHT22;3956;50.558;9.678;2023-04-03T15:04:10;5.70;1.00
7822;DHT22;3956;50.558;9.678;2023-04-03T15:06:57;6.20;1.00
7822;DHT22;3956;50.558;9.678;2023-04-03T15:09:28;5.70;1.00
7822;DHT22;3956;50.558;9.678;2023-04-03T15:12:02;6.10;1.00
7822;DHT22;3956;50.558;9.678;2023-04-03T15:14:34;6.50;1.00
7822;DHT22;3956;50.558;9.678;2023-04-03T15:17:22;6.30;1.00
7822;DHT22;3956;50.558;9.678;2023-04-03T15:19:49;5.40;1.00
7822;DHT22;3956;50.558;9.678;2023-04-03T15:22:19;5.80;1.00
7822;DHT22;3956;50.558;9.678;2023-04-03T15:24:58;6.10;1.00
7822;DHT22;3956;50.558;9.678;2023-04-03T15:27:45;5.50;1.00
7822;DHT22;3956;50.558;9.678;2023-04-03T15:30:44;5.90;1.00
7822;DHT22;3956;50.558;9.678;2023-04-03T15:33:22;5.80;1.00
7822;DHT22;3956;50.558;9.678;2023-04-03T15:35:58;5.70;1.00
7822;DHT22;3956;50.558;9.678;2023-04-03T15:38:52;5.50;1.00
7822;DHT22;3956;50.558;9.678;2023-04-03T15:41:29;5.40;1.00
7822;DHT22;3956;50.558;9.678;2023-04-03T15:44:00;5.50;1.00
7822;DHT22;3956;50.558;9.678;2023-04-03T15:46:30;5.50;1.00
7822;DHT22;3956;50.558;9.678;2023-04-03T15:49:00;5.50;1.00
7822;DHT22;3956;50.558;9.678;2023-04-03T15:51:39;5.30;1.00
7822;DHT22;3956;50.558;9.678;2023-04-03T15:54:33;5.30;1.00
7822;DHT22;3956;50.558;9.678;2023-04-03T15:57:01;5.20;1.00
7822;DHT22;3956;50.558;9.678;2023-04-03T15:59:32;5.00;1.00
7822;DHT22;3956;50.558;9.678;2023-04-03T16:02:09;5.40;1.00
7822;DHT22;3956;50.558;9.678;2023-04-03T16:05:01;5.10;1.00
7822;DHT22;3956;50.558;9.678;2023-04-03T16:07:56;5.20;1.00
7822;DHT22;3956;50.558;9.678;2023-04-03T16:11:20;5.00;1.00
7822;DHT22;3956;50.558;9.678;2023-04-03T16:17:11;5.10;1.00
7822;DHT22;3956;50.558;9.678;2023-04-03T16:19:40;5.20;1.00
7822;DHT22;3956;50.558;9.678;2023-04-03T16:22:09;4.90;1.00
7822;DHT22;3956;50.558;9.678;2023-04-03T16:24:39;5.10;1.00
7822;DHT22;3956;50.558;9.678;2023-04-03T16:27:11;4.80;1.00
7822;DHT22;3956;50.558;9.678;2023-04-03T16:29:41;4.80;1.00
7822;DHT22;3956;50.558;9.678;2023-04-03T16:32:13;4.90;1.00
7822;DHT22;3956;50.558;9.678;2023-04-03T16:34:43;4.60;1.00
7822;DHT22;3956;50.558;9.678;2023-04-03T16:37:29;4.60;1.00
7822;DHT22;3956;50.558;9.678;2023-04-03T16:40:02;4.80;1.00
7822;DHT22;3956;50.558;9.678;2023-04-03T16:42:32;4.80;1.00
7822;DHT22;3956;50.558;9.678;2023-04-03T16:45:07;4.80;1.00
7822;DHT22;3956;50.558;9.678;2023-04-03T16:47:43;4.80;1.00
7822;DHT22;3956;50.558;9.678;2023-04-03T16:50:13;4.70;1.00
7822;DHT22;3956;50.558;9.678;2023-04-03T16:52:41;4.70;1.00
7822;DHT22;3956;50.558;9.678;2023-04-03T16:58:08;4.60;1.00
7822;DHT22;3956;50.558;9.678;2023-04-03T17:00:38;4.60;1.00
7822;DHT22;3956;50.558;9.678;2023-04-03T17:03:10;4.40;1.00
7822;DHT22;3956;50.558;9.678;2023-04-03T17:05:53;4.50;1.00
7822;DHT22;3956;50.558;9.678;2023-04-03T17:09:04;4.40;1.00
7822;DHT22;3956;50.558;9.678;2023-04-03T17:11:34;4.30;1.00
7822;DHT22;3956;50.558;9.678;2023-04-03T17:14:03;4.40;1.00
7822;DHT22;3956;50.558;9.678;2023-04-03T17:16:45;4.40;1.00
7822;DHT22;3956;50.558;9.678;2023-04-03T17:19:40;4.30;1.00
7822;DHT22;3956;50.558;9.678;2023-04-03T17:22:11;4.40;1.00
7822;DHT22;3956;50.558;9.678;2023-04-03T17:24:42;4.40;1.00
7822;DHT22;3956;50.558;9.678;2023-04-03T17:27:24;4.20;1.00
7822;DHT22;3956;50.558;9.678;2023-04-03T17:29:59;4.30;1.00
7822;DHT22;3956;50.558;9.678;2023-04-03T17:32:29;4.10;1.00
7822;DHT22;3956;50.558;9.678;2023-04-03T17:35:05;3.90;1.00
7822;DHT22;3956;50.558;9.678;2023-04-03T17:37:38;3.90;1.00
7822;DHT22;3956;50.558;9.678;2023-04-03T17:40:08;4.00;1.00
7822;DHT22;3956;50.558;9.678;2023-04-03T17:42:42;3.80;1.00
7822;DHT22;3956;50.558;9.678;2023-04-03T17:45:13;3.90;1.00
7822;DHT22;3956;50.558;9.678;2023-04-03T17:47:47;3.90;1.00
7822;DHT22;3956;50.558;9.678;2023-04-03T17:50:42;3.80;1.00
7822;DHT22;3956;50.558;9.678;2023-04-03T17:53:37;3.90;1.00
7822;DHT22;3956;50.558;9.678;2023-04-03T17:56:12;3.60;1.00
7822;DHT22;3956;50.558;9.678;2023-04-03T17:58:41;3.60;1.00
7822;DHT22;3956;50.558;9.678;2023-04-03T18:01:12;3.60;1.00
7822;DHT22;3956;50.558;9.678;2023-04-03T18:03:58;3.60;1.00
7822;DHT22;3956;50.558;9.678;2023-04-03T18:06:58;3.50;1.00
7822;DHT22;3956;50.558;9.678;2023-04-03T18:10:07;3.50;1.00
7822;DHT22;3956;50.558;9.678;2023-04-03T18:12:42;3.50;1.00
7822;DHT22;3956;50.558;9.678;2023-04-03T18:15:12;3.40;1.00
7822;DHT22;3956;50.558;9.678;2023-04-03T18:17:45;3.50;1.00
7822;DHT22;3956;50.558;9.678;2023-04-03T18:20:18;3.40;1.00
7822;DHT22;3956;50.558;9.678;2023-04-03T18:22:51;3.40;1.00
7822;DHT22;3956;50.558;9.678;2023-04-03T18:25:22;3.30;1.00
7822;DHT22;3956;50.558;9.678;2023-04-03T18:27:57;3.20;1.00
7822;DHT22;3956;50.558;9.678;2023-04-03T18:30:33;3.10;1.00
7822;DHT22;3956;50.558;9.678;2023-04-03T18:33:03;3.20;1.00